Time,TemperatureF,DewpointF,PressureIn,WindDirection,WindDirectionDegrees,WindSpeedMPH,WindSpeedGustMPH,Humidity,HourlyPrecipIn,Conditions,Clouds,dailyrainin,SoftwareType,DateUTC
2013-08-19 00:01:00,67.7,60.6,30.12,South,173,0.0,1.0,78,0.00,-RA,-RA,0.00,WeatherDisplay:10.37,2013-08-19 05:01:00,
2013-08-19 00:11:00,67.6,60.5,30.12,South,173,1.0,2.0,78,0.00,-RA,-RA,0.00,WeatherDisplay:10.37,2013-08-19 05:11:00,
2013-08-19 00:16:00,67.6,60.5,30.12,South,173,0.0,2.0,78,0.00,-RA,-RA,0.00,WeatherDisplay:10.37,2013-08-19 05:16:00,
2013-08-19 00:21:00,67.5,60.4,30.12,South,173,1.0,3.0,78,0.00,-RA,-RA,0.00,WeatherDisplay:10.37,2013-08-19 05:21:00,
2013-08-19 00:26:00,67.5,60.4,30.12,South,173,0.0,3.0,78,0.00,-RA,-RA,0.00,WeatherDisplay:10.37,2013-08-19 05:26:00,
2013-08-19 00:31:00,67.5,60.4,30.12,South,173,0.0,3.0,78,0.00,-RA,-RA,0.00,WeatherDisplay:10.37,2013-08-19 05:31:00,
2013-08-19 00:41:00,67.4,60.3,30.12,South,173,0.0,2.0,78,0.00,-RA,-RA,0.00,WeatherDisplay:10.37,2013-08-19 05:41:00,
2013-08-19 00:46:00,67.3,60.2,30.12,South,173,1.0,3.0,78,0.00,-RA,-RA,0.00,WeatherDisplay:10.37,2013-08-19 05:46:00,
2013-08-19 00:51:00,67.3,60.2,30.12,South,173,1.0,3.0,78,0.00,-RA,-RA,0.00,WeatherDisplay:10.37,2013-08-19 05:51:00,
2013-08-19 01:01:00,67.2,60.1,30.12,South,173,1.0,2.0,78,0.00,-RA,-RA,0.00,WeatherDisplay:10.37,2013-08-19 06:01:00,
2013-08-19 01:11:00,67.0,60.2,30.11,South,173,1.0,3.0,79,0.00,-RA,-RA,0.00,WeatherDisplay:10.37,2013-08-19 06:11:00,
2013-08-19 01:16:00,66.9,60.1,30.11,South,173,0.0,2.0,79,0.00,-RA,-RA,0.00,WeatherDisplay:10.37,2013-08-19 06:16:00,
2013-08-19 01:21:00,66.8,60.0,30.11,South,173,1.0,3.0,79,0.00,-RA,-RA,0.00,WeatherDisplay:10.37,2013-08-19 06:21:00,
2013-08-19 01:26:00,66.8,60.0,30.11,South,173,1.0,3.0,79,0.00,-RA,-RA,0.00,WeatherDisplay:10.37,2013-08-19 06:26:00,
2013-08-19 01:31:00,66.7,59.9,30.11,South,173,0.0,3.0,79,0.00,-RA,-RA,0.00,WeatherDisplay:10.37,2013-08-19 06:31:00,
2013-08-19 01:41:00,66.4,60.0,30.11,South,173,1.0,3.0,80,0.00,-RA,-RA,0.00,WeatherDisplay:10.37,2013-08-19 06:41:00,
2013-08-19 01:51:00,66.1,59.8,30.10,South,173,1.0,2.0,80,0.00,-RA,-RA,0.00,WeatherDisplay:10.37,2013-08-19 06:51:00,
2013-08-19 02:01:00,65.9,59.9,30.09,South,173,1.0,3.0,81,0.00,-RA,-RA,0.00,WeatherDisplay:10.37,2013-08-19 07:01:00,
2013-08-19 02:11:00,65.7,59.7,30.09,South,173,1.0,3.0,81,0.00,-RA,-RA,0.00,WeatherDisplay:10.37,2013-08-19 07:11:00,
2013-08-19 02:16:00,65.6,60.0,30.09,South,173,1.0,3.0,82,0.00,-RA,-RA,0.00,WeatherDisplay:10.37,2013-08-19 07:16:00,
2013-08-19 02:21:00,65.6,59.9,30.09,South,173,1.0,4.0,82,0.00,-RA,-RA,0.00,WeatherDisplay:10.37,2013-08-19 07:21:00,
2013-08-19 02:31:00,65.5,59.8,30.09,South,172,1.0,4.0,82,0.00,-RA,-RA,0.00,WeatherDisplay:10.37,2013-08-19 07:31:00,
2013-08-19 02:41:00,65.5,60.2,30.09,South,171,1.0,3.0,83,0.00,-RA,-RA,0.00,WeatherDisplay:10.37,2013-08-19 07:41:00,
2013-08-19 02:46:00,65.4,60.1,30.09,South,170,1.0,6.0,83,0.00,-RA,-RA,0.00,WeatherDisplay:10.37,2013-08-19 07:46:00,
2013-08-19 02:51:00,65.3,60.0,30.09,South,169,2.0,5.0,83,0.00,-RA,-RA,0.00,WeatherDisplay:10.37,2013-08-19 07:51:00,
2013-08-19 03:01:00,65.1,59.8,30.08,South,169,1.0,3.0,83,0.00,-RA,-RA,0.00,WeatherDisplay:10.37,2013-08-19 08:01:00,
2013-08-19 03:11:00,64.8,59.8,30.08,South,169,1.0,3.0,84,0.00,-RA,-RA,0.00,WeatherDisplay:10.37,2013-08-19 08:11:00,
2013-08-19 03:21:00,64.4,59.5,30.08,South,169,1.0,3.0,84,0.00,-RA,-RA,0.00,WeatherDisplay:10.37,2013-08-19 08:21:00,
2013-08-19 03:26:00,64.3,59.4,30.08,South,169,1.0,3.0,84,0.00,-RA,-RA,0.00,WeatherDisplay:10.37,2013-08-19 08:26:00,
2013-08-19 03:31:00,64.2,59.6,30.08,South,169,1.0,3.0,85,0.00,-RA,-RA,0.00,WeatherDisplay:10.37,2013-08-19 08:31:00,
2013-08-19 03:41:00,64.1,59.5,30.08,South,169,1.0,3.0,85,0.00,-RA,-RA,0.00,WeatherDisplay:10.37,2013-08-19 08:41:00,
2013-08-19 03:46:00,64.1,59.5,30.08,South,169,0.0,2.0,85,0.00,-RA,-RA,0.00,WeatherDisplay:10.37,2013-08-19 08:46:00,
2013-08-19 03:56:00,64.0,59.4,30.08,South,169,0.0,2.0,85,0.00,-RA,-RA,0.00,WeatherDisplay:10.37,2013-08-19 08:56:00,
2013-08-19 04:01:00,64.0,59.4,30.08,South,169,0.0,1.0,85,0.00,-RA,-RA,0.00,WeatherDisplay:10.37,2013-08-19 09:01:00,
2013-08-19 04:11:00,63.9,59.3,30.07,South,169,0.0,1.0,85,0.00,-RA,-RA,0.00,WeatherDisplay:10.37,2013-08-19 09:11:00,
2013-08-19 04:21:00,63.6,59.0,30.08,South,169,0.0,1.0,85,0.00,-RA,-RA,0.00,WeatherDisplay:10.37,2013-08-19 09:21:00,
2013-08-19 04:31:00,63.5,59.2,30.08,South,169,0.0,3.0,86,0.00,-RA,-RA,0.00,WeatherDisplay:10.37,2013-08-19 09:31:00,
2013-08-19 04:41:00,63.3,59.0,30.08,South,169,0.0,1.0,86,0.00,-RA,-RA,0.00,WeatherDisplay:10.37,2013-08-19 09:41:00,
2013-08-19 04:46:00,63.1,58.8,30.08,South,169,0.0,2.0,86,0.00,-RA,-RA,0.00,WeatherDisplay:10.37,2013-08-19 09:46:00,
2013-08-19 04:51:00,63.1,59.1,30.08,South,169,0.0,1.0,87,0.00,-RA,-RA,0.00,WeatherDisplay:10.37,2013-08-19 09:51:00,
2013-08-19 04:56:00,63.1,58.8,30.08,South,169,0.0,1.0,86,0.00,-RA,-RA,0.00,WeatherDisplay:10.37,2013-08-19 09:56:00,
2013-08-19 05:01:00,63.0,59.1,30.08,South,169,0.0,2.0,87,0.00,-RA,-RA,0.00,WeatherDisplay:10.37,2013-08-19 10:01:00,
2013-08-19 05:11:00,62.9,58.9,30.08,South,169,0.0,2.0,87,0.00,-RA,-RA,0.00,WeatherDisplay:10.37,2013-08-19 10:11:00,
2013-08-19 05:16:00,62.9,58.9,30.08,South,169,1.0,1.0,87,0.00,-RA,-RA,0.00,WeatherDisplay:10.37,2013-08-19 10:16:00,
2013-08-19 05:26:00,62.6,58.6,30.08,South,169,0.0,2.0,87,0.00,-RA,-RA,0.00,WeatherDisplay:10.37,2013-08-19 10:26:00,
2013-08-19 05:31:00,62.4,58.4,30.08,South,169,0.0,1.0,87,0.00,-RA,-RA,0.00,WeatherDisplay:10.37,2013-08-19 10:31:00,
2013-08-19 05:41:00,62.2,58.6,30.09,South,169,0.0,1.0,88,0.00,-RA,-RA,0.00,WeatherDisplay:10.37,2013-08-19 10:41:00,
2013-08-19 05:51:00,62.4,58.8,30.09,South,169,1.0,2.0,88,0.00,-RA,-RA,0.00,WeatherDisplay:10.37,2013-08-19 10:51:00,
2013-08-19 06:01:00,62.6,59.0,30.09,South,169,1.0,3.0,88,0.00,-RA,-RA,0.00,WeatherDisplay:10.37,2013-08-19 11:01:00,
2013-08-19 06:11:00,62.8,59.2,30.09,South,169,1.0,3.0,88,0.00,-RA,-RA,0.00,WeatherDisplay:10.37,2013-08-19 11:11:00,
2013-08-19 06:16:00,62.9,59.3,30.09,South,169,1.0,3.0,88,0.00,-RA,-RA,0.00,WeatherDisplay:10.37,2013-08-19 11:16:00,
2013-08-19 06:21:00,62.9,59.3,30.09,South,169,1.0,2.0,88,0.00,-RA,-RA,0.00,WeatherDisplay:10.37,2013-08-19 11:21:00,
2013-08-19 06:31:00,62.9,59.3,30.10,South,169,1.0,2.0,88,0.00,-RA,-RA,0.00,WeatherDisplay:10.37,2013-08-19 11:31:00,
2013-08-19 06:41:00,63.0,59.3,30.10,South,169,1.0,2.0,88,0.00,-RA,-RA,0.00,WeatherDisplay:10.37,2013-08-19 11:41:00,
2013-08-19 06:46:00,63.0,59.4,30.10,South,169,1.0,2.0,88,0.00,-RA,-RA,0.00,WeatherDisplay:10.37,2013-08-19 11:46:00,
2013-08-19 06:51:00,63.1,59.5,30.10,South,169,1.0,2.0,88,0.00,-RA,-RA,0.00,WeatherDisplay:10.37,2013-08-19 11:51:00,
2013-08-19 07:01:00,63.2,59.5,30.10,SSE,166,1.0,3.0,88,0.00,-RA,-RA,0.00,WeatherDisplay:10.37,2013-08-19 12:01:00,
2013-08-19 07:11:00,63.3,59.6,30.10,SSE,161,1.0,3.0,88,0.00,-RA,-RA,0.00,WeatherDisplay:10.37,2013-08-19 12:11:00,
2013-08-19 07:16:00,63.4,59.8,30.10,SSE,161,2.0,4.0,88,0.00,-RA,-RA,0.00,WeatherDisplay:10.37,2013-08-19 12:16:00,
2013-08-19 07:21:00,63.5,59.8,30.10,SSE,161,1.0,3.0,88,0.00,-RA,-RA,0.00,WeatherDisplay:10.37,2013-08-19 12:21:00,
2013-08-19 07:26:00,63.5,59.8,30.10,SSE,161,1.0,4.0,88,0.00,-RA,-RA,0.00,WeatherDisplay:10.37,2013-08-19 12:26:00,
2013-08-19 07:31:00,63.6,60.0,30.10,SSE,161,2.0,4.0,88,0.00,-RA,-RA,0.00,WeatherDisplay:10.37,2013-08-19 12:31:00,
2013-08-19 07:41:00,64.0,60.4,30.10,SSE,160,1.0,4.0,88,0.00,-RA,-RA,0.00,WeatherDisplay:10.37,2013-08-19 12:41:00,
2013-08-19 07:46:00,64.1,60.5,30.10,SSE,159,1.0,3.0,88,0.00,-RA,-RA,0.00,WeatherDisplay:10.37,2013-08-19 12:46:00,
2013-08-19 07:51:00,64.4,60.7,30.10,SSE,159,1.0,3.0,88,0.00,-RA,-RA,0.00,WeatherDisplay:10.37,2013-08-19 12:51:00,
2013-08-19 07:56:00,64.8,61.1,30.10,SSE,159,1.0,3.0,88,0.00,-RA,-RA,0.00,WeatherDisplay:10.37,2013-08-19 12:56:00,
2013-08-19 08:01:00,65.2,61.6,30.10,SSE,154,2.0,4.0,88,0.00,-RA,-RA,0.00,WeatherDisplay:10.37,2013-08-19 13:01:00,
2013-08-19 08:11:00,66.1,62.1,30.10,SSE,153,2.0,4.0,87,0.00,-RA,-RA,0.00,WeatherDisplay:10.37,2013-08-19 13:11:00,
2013-08-19 08:21:00,66.8,62.5,30.10,SSE,155,3.0,7.0,86,0.00,-RA,-RA,0.00,WeatherDisplay:10.37,2013-08-19 13:21:00,
2013-08-19 08:26:00,67.2,62.9,30.10,SSE,156,2.0,4.0,86,0.00,-RA,-RA,0.00,WeatherDisplay:10.37,2013-08-19 13:26:00,
2013-08-19 08:31:00,67.3,62.6,30.11,SSE,157,3.0,7.0,85,0.00,-RA,-RA,0.00,WeatherDisplay:10.37,2013-08-19 13:31:00,
2013-08-19 08:41:00,68.1,63.4,30.11,SSE,159,2.0,5.0,85,0.00,-RA,-RA,0.00,WeatherDisplay:10.37,2013-08-19 13:41:00,
2013-08-19 08:46:00,68.9,64.2,30.11,SSE,162,2.0,4.0,85,0.00,-RA,-RA,0.00,WeatherDisplay:10.37,2013-08-19 13:46:00,
2013-08-19 08:56:00,70.2,64.5,30.11,SSE,163,3.0,6.0,82,0.00,-RA,-RA,0.00,WeatherDisplay:10.37,2013-08-19 13:56:00,
2013-08-19 09:01:00,71.0,64.8,30.11,SSE,167,2.0,5.0,81,0.00,-RA,-RA,0.00,WeatherDisplay:10.37,2013-08-19 14:01:00,
2013-08-19 09:11:00,72.1,64.5,30.10,South,171,3.0,8.0,77,0.00,-RA,-RA,0.00,WeatherDisplay:10.37,2013-08-19 14:11:00,
2013-08-19 09:16:00,72.1,64.5,30.11,SSE,167,3.0,8.0,77,0.00,-RA,-RA,0.00,WeatherDisplay:10.37,2013-08-19 14:16:00,
2013-08-19 09:21:00,72.3,64.7,30.10,South,172,2.0,7.0,77,0.00,-RA,-RA,0.00,WeatherDisplay:10.37,2013-08-19 14:21:00,
2013-08-19 09:31:00,72.9,65.3,30.10,South,170,2.0,6.0,77,0.00,-RA,-RA,0.00,WeatherDisplay:10.37,2013-08-19 14:31:00,
2013-08-19 09:41:00,74.4,66.0,30.10,South,184,2.0,4.0,75,0.00,-RA,-RA,0.00,WeatherDisplay:10.37,2013-08-19 14:41:00,
2013-08-19 09:46:00,75.0,65.8,30.11,South,191,2.0,7.0,73,0.00,-RA,-RA,0.00,WeatherDisplay:10.37,2013-08-19 14:46:00,
2013-08-19 09:51:00,75.1,64.7,30.11,SSW,193,6.0,9.0,70,0.00,-RA,-RA,0.00,WeatherDisplay:10.37,2013-08-19 14:51:00,
2013-08-19 09:56:00,75.0,64.5,30.11,South,188,5.0,9.0,70,0.00,-RA,-RA,0.00,WeatherDisplay:10.37,2013-08-19 14:56:00,
2013-08-19 10:02:00,75.1,64.6,30.11,South,182,5.0,10.0,70,0.00,-RA,-RA,0.00,WeatherDisplay:10.37,2013-08-19 15:02:00,
2013-08-19 10:11:00,74.6,63.8,30.11,South,182,5.0,10.0,69,0.00,-RA,-RA,0.00,WeatherDisplay:10.37,2013-08-19 15:11:00,
2013-08-19 10:21:00,74.2,63.7,30.11,South,172,3.0,12.0,70,0.00,-RA,-RA,0.00,WeatherDisplay:10.37,2013-08-19 15:21:00,
2013-08-19 10:31:00,74.7,64.7,30.11,South,173,3.0,6.0,71,0.00,-RA,-RA,0.00,WeatherDisplay:10.37,2013-08-19 15:31:00,
2013-08-19 10:42:00,75.7,65.2,30.11,South,177,5.0,9.0,70,0.00,-RA,-RA,0.00,WeatherDisplay:10.37,2013-08-19 15:42:00,
2013-08-19 10:51:00,76.6,65.6,30.11,South,173,3.0,9.0,69,0.00,-RA,-RA,0.00,WeatherDisplay:10.37,2013-08-19 15:51:00,
2013-08-19 11:01:00,77.1,65.7,30.11,SSE,168,3.0,9.0,68,0.00,-RA,-RA,0.00,WeatherDisplay:10.37,2013-08-19 16:01:00,
2013-08-19 11:11:00,78.2,65.9,30.11,South,180,5.0,9.0,66,0.00,-RA,-RA,0.00,WeatherDisplay:10.37,2013-08-19 16:11:00,
2013-08-19 11:16:00,78.3,64.7,30.11,South,183,7.0,12.0,63,0.00,-RA,-RA,0.00,WeatherDisplay:10.37,2013-08-19 16:16:00,
2013-08-19 11:26:00,78.1,64.9,30.11,South,182,6.0,12.0,64,0.00,-RA,-RA,0.00,WeatherDisplay:10.37,2013-08-19 16:26:00,
2013-08-19 11:31:00,78.2,65.0,30.10,South,177,5.0,12.0,64,0.00,-RA,-RA,0.00,WeatherDisplay:10.37,2013-08-19 16:31:00,
2013-08-19 11:41:00,78.7,65.5,30.10,South,169,3.0,9.0,64,0.00,-RA,-RA,0.00,WeatherDisplay:10.37,2013-08-19 16:41:00,
2013-08-19 11:46:00,79.2,64.6,30.10,South,184,7.0,12.0,61,0.00,-RA,-RA,0.00,WeatherDisplay:10.37,2013-08-19 16:46:00,
2013-08-19 11:51:00,79.1,64.5,30.10,South,183,5.0,12.0,61,0.00,-RA,-RA,0.00,WeatherDisplay:10.37,2013-08-19 16:51:00,
2013-08-19 12:01:00,79.2,64.6,30.10,South,183,5.0,12.0,61,0.00,-RA,-RA,0.00,WeatherDisplay:10.37,2013-08-19 17:01:00,
2013-08-19 12:11:00,79.4,64.3,30.10,South,182,6.0,10.0,60,0.00,-RA,-RA,0.00,WeatherDisplay:10.37,2013-08-19 17:11:00,
2013-08-19 12:16:00,79.5,66.2,30.10,South,180,5.0,9.0,64,0.00,-RA,-RA,0.00,WeatherDisplay:10.37,2013-08-19 17:16:00,
2013-08-19 12:21:00,79.7,64.5,30.10,South,174,6.0,10.0,60,0.00,-RA,-RA,0.00,WeatherDisplay:10.37,2013-08-19 17:21:00,
2013-08-19 12:31:00,79.4,64.3,30.09,South,174,6.0,10.0,60,0.00,-RA,-RA,0.00,WeatherDisplay:10.37,2013-08-19 17:31:00,
2013-08-19 12:41:00,79.8,65.2,30.09,South,184,3.0,12.0,61,0.00,-RA,-RA,0.00,WeatherDisplay:10.37,2013-08-19 17:41:00,
2013-08-19 12:46:00,79.9,64.7,30.09,South,178,5.0,14.0,60,0.00,-RA,-RA,0.00,WeatherDisplay:10.37,2013-08-19 17:46:00,
2013-08-19 12:56:00,80.4,65.7,30.08,SSE,158,3.0,8.0,61,0.00,-RA,-RA,0.00,WeatherDisplay:10.37,2013-08-19 17:56:00,
2013-08-19 13:01:00,80.7,66.0,30.08,South,174,3.0,10.0,61,0.00,-RA,-RA,0.00,WeatherDisplay:10.37,2013-08-19 18:01:00,
2013-08-19 13:11:00,80.7,66.5,30.08,South,172,2.0,6.0,62,0.00,-RA,-RA,0.00,WeatherDisplay:10.37,2013-08-19 18:11:00,
2013-08-19 13:16:00,81.3,66.5,30.08,South,175,3.0,9.0,61,0.00,-RA,-RA,0.00,WeatherDisplay:10.37,2013-08-19 18:16:00,
2013-08-19 13:21:00,81.3,65.1,30.08,South,185,6.0,13.0,58,0.00,-RA,-RA,0.00,WeatherDisplay:10.37,2013-08-19 18:21:00,
2013-08-19 13:31:00,81.1,65.4,30.07,South,179,5.0,12.0,59,0.00,-RA,-RA,0.00,WeatherDisplay:10.37,2013-08-19 18:31:00,
2013-08-19 13:41:00,81.5,64.8,30.07,South,169,6.0,9.0,57,0.00,-RA,-RA,0.00,WeatherDisplay:10.37,2013-08-19 18:41:00,
2013-08-19 13:46:00,81.4,65.2,30.07,SSE,167,3.0,8.0,58,0.00,-RA,-RA,0.00,WeatherDisplay:10.37,2013-08-19 18:46:00,
2013-08-19 13:51:00,81.7,65.4,30.07,South,173,2.0,8.0,58,0.00,-RA,-RA,0.00,WeatherDisplay:10.37,2013-08-19 18:51:00,
2013-08-19 14:01:00,81.7,63.9,30.07,South,191,5.0,12.0,55,0.00,-RA,-RA,0.00,WeatherDisplay:10.37,2013-08-19 19:01:00,
2013-08-19 14:11:00,81.8,64.6,30.06,South,178,6.0,10.0,56,0.00,-RA,-RA,0.00,WeatherDisplay:10.37,2013-08-19 19:11:00,
2013-08-19 14:16:00,81.7,63.9,30.06,South,174,5.0,10.0,55,0.00,-RA,-RA,0.00,WeatherDisplay:10.37,2013-08-19 19:16:00,
2013-08-19 14:22:00,81.7,65.5,30.06,South,170,2.0,8.0,58,0.00,-RA,-RA,0.00,WeatherDisplay:10.37,2013-08-19 19:22:00,
2013-08-19 14:31:00,82.5,64.7,30.06,South,191,5.0,10.0,55,0.00,-RA,-RA,0.00,WeatherDisplay:10.37,2013-08-19 19:31:00,
2013-08-19 14:41:00,82.9,64.5,30.05,SSW,194,5.0,12.0,54,0.00,-RA,-RA,0.00,WeatherDisplay:10.37,2013-08-19 19:41:00,
2013-08-19 14:46:00,82.4,64.0,30.05,South,191,5.0,12.0,54,0.00,-RA,-RA,0.00,WeatherDisplay:10.37,2013-08-19 19:46:00,
2013-08-19 14:51:00,82.4,64.6,30.05,South,177,5.0,12.0,55,0.00,-RA,-RA,0.00,WeatherDisplay:10.37,2013-08-19 19:51:00,
2013-08-19 15:01:00,82.6,64.3,30.05,South,175,6.0,9.0,54,0.00,-RA,-RA,0.00,WeatherDisplay:10.37,2013-08-19 20:01:00,
2013-08-19 15:11:00,82.7,64.4,30.04,SSE,168,5.0,9.0,54,0.00,-RA,-RA,0.00,WeatherDisplay:10.37,2013-08-19 20:11:00,
2013-08-19 15:21:00,82.8,65.0,30.04,SSW,192,6.0,12.0,55,0.00,-RA,-RA,0.00,WeatherDisplay:10.37,2013-08-19 20:21:00,
2013-08-19 15:31:00,82.8,65.5,30.04,South,189,3.0,8.0,56,0.00,-RA,-RA,0.00,WeatherDisplay:10.37,2013-08-19 20:31:00,
2013-08-19 15:41:00,83.1,65.8,30.03,South,187,3.0,8.0,56,0.00,-RA,-RA,0.00,WeatherDisplay:10.37,2013-08-19 20:41:00,
2013-08-19 15:51:00,83.0,64.1,30.03,South,183,6.0,8.0,53,0.00,-RA,-RA,0.00,WeatherDisplay:10.37,2013-08-19 20:51:00,
2013-08-19 15:56:00,82.6,63.8,30.03,South,183,5.0,12.0,53,0.00,-RA,-RA,0.00,WeatherDisplay:10.37,2013-08-19 20:56:00,
2013-08-19 16:06:00,83.2,64.3,30.02,South,179,6.0,12.0,53,0.00,-RA,-RA,0.00,WeatherDisplay:10.37,2013-08-19 21:06:00,
2013-08-19 16:12:00,83.3,64.9,30.02,South,179,5.0,9.0,54,0.00,-RA,-RA,0.00,WeatherDisplay:10.37,2013-08-19 21:12:00,
2013-08-19 16:21:00,83.3,64.3,30.02,South,191,5.0,9.0,53,0.00,-RA,-RA,0.00,WeatherDisplay:10.37,2013-08-19 21:21:00,
2013-08-19 16:31:00,83.2,64.2,30.02,SSW,196,5.0,10.0,53,0.00,-RA,-RA,0.00,WeatherDisplay:10.37,2013-08-19 21:31:00,
2013-08-19 16:41:00,82.9,64.5,30.02,SSW,197,6.0,12.0,54,0.00,-RA,-RA,0.00,WeatherDisplay:10.37,2013-08-19 21:41:00,
2013-08-19 16:46:00,83.0,64.1,30.01,South,189,5.0,9.0,53,0.00,-RA,-RA,0.00,WeatherDisplay:10.37,2013-08-19 21:46:00,
2013-08-19 16:51:00,83.0,64.6,30.01,SSW,197,5.0,9.0,54,0.00,-RA,-RA,0.00,WeatherDisplay:10.37,2013-08-19 21:51:00,
2013-08-19 17:01:00,82.6,63.7,30.01,SSW,207,7.0,13.0,53,0.00,-RA,-RA,0.00,WeatherDisplay:10.37,2013-08-19 22:01:00,
2013-08-19 17:11:00,82.9,65.0,30.01,SSW,193,5.0,8.0,55,0.00,-RA,-RA,0.00,WeatherDisplay:10.37,2013-08-19 22:11:00,
2013-08-19 17:16:00,82.8,64.4,30.01,SSW,201,6.0,9.0,54,0.00,-RA,-RA,0.00,WeatherDisplay:10.37,2013-08-19 22:16:00,
2013-08-19 17:21:00,82.8,65.5,30.01,SSW,201,6.0,9.0,56,0.00,-RA,-RA,0.00,WeatherDisplay:10.37,2013-08-19 22:21:00,
2013-08-19 17:31:00,82.8,65.0,30.01,SSW,198,3.0,12.0,55,0.00,-RA,-RA,0.00,WeatherDisplay:10.37,2013-08-19 22:31:00,
2013-08-19 17:41:00,82.6,63.7,30.01,South,184,3.0,10.0,53,0.00,-RA,-RA,0.00,WeatherDisplay:10.37,2013-08-19 22:41:00,
2013-08-19 17:46:00,82.7,64.9,30.01,South,181,3.0,7.0,55,0.00,-RA,-RA,0.00,WeatherDisplay:10.37,2013-08-19 22:46:00,
2013-08-19 17:56:00,82.5,65.2,30.01,SSW,197,5.0,11.0,56,0.00,-RA,-RA,0.00,WeatherDisplay:10.37,2013-08-19 22:56:00,
2013-08-19 18:01:00,82.2,64.9,30.00,SSW,199,2.0,10.0,56,0.00,-RA,-RA,0.00,WeatherDisplay:10.37,2013-08-19 23:01:00,
2013-08-19 18:11:00,81.9,65.7,30.00,SSW,197,2.0,6.0,58,0.00,-RA,-RA,0.00,WeatherDisplay:10.37,2013-08-19 23:11:00,
2013-08-19 18:16:00,82.0,65.7,30.00,SSW,194,3.0,7.0,58,0.00,-RA,-RA,0.00,WeatherDisplay:10.37,2013-08-19 23:16:00,
2013-08-19 18:21:00,81.9,64.6,30.00,South,188,3.0,7.0,56,0.00,-RA,-RA,0.00,WeatherDisplay:10.37,2013-08-19 23:21:00,
2013-08-19 18:26:00,81.8,66.0,30.00,South,183,2.0,7.0,59,0.00,-RA,-RA,0.00,WeatherDisplay:10.37,2013-08-19 23:26:00,
2013-08-19 18:31:00,81.7,64.9,30.00,South,184,3.0,7.0,57,0.00,-RA,-RA,0.00,WeatherDisplay:10.37,2013-08-19 23:31:00,
2013-08-19 18:41:00,81.2,65.5,30.00,South,187,3.0,8.0,59,0.00,-RA,-RA,0.00,WeatherDisplay:10.37,2013-08-19 23:41:00,
2013-08-19 18:51:00,80.8,65.1,30.00,South,191,3.0,6.0,59,0.00,-RA,-RA,0.00,WeatherDisplay:10.37,2013-08-19 23:51:00,
2013-08-19 19:02:00,80.4,65.7,30.00,SSW,196,1.0,4.0,61,0.00,-RA,-RA,0.00,WeatherDisplay:10.37,2013-08-20 00:02:00,
2013-08-19 19:11:00,80.0,65.8,30.00,SSW,198,1.0,2.0,62,0.00,-RA,-RA,0.00,WeatherDisplay:10.37,2013-08-20 00:11:00,
2013-08-19 19:21:00,79.5,65.3,30.00,South,181,1.0,4.0,62,0.00,-RA,-RA,0.00,WeatherDisplay:10.37,2013-08-20 00:21:00,
2013-08-19 19:26:00,79.2,65.1,30.00,South,171,2.0,6.0,62,0.00,-RA,-RA,0.00,WeatherDisplay:10.37,2013-08-20 00:26:00,
2013-08-19 19:31:00,79.0,65.3,30.00,SSE,165,1.0,3.0,63,0.00,-RA,-RA,0.00,WeatherDisplay:10.37,2013-08-20 00:31:00,
2013-08-19 19:41:00,78.4,64.8,30.00,SSE,154,1.0,4.0,63,0.00,-RA,-RA,0.00,WeatherDisplay:10.37,2013-08-20 00:41:00,
2013-08-19 19:46:00,78.1,65.0,30.00,SSE,152,0.0,5.0,64,0.00,-RA,-RA,0.00,WeatherDisplay:10.37,2013-08-20 00:46:00,
2013-08-19 19:51:00,77.7,65.0,30.00,SSE,153,0.0,1.0,65,0.00,-RA,-RA,0.00,WeatherDisplay:10.37,2013-08-20 00:51:00,
2013-08-19 19:56:00,77.4,64.7,30.00,SSE,154,0.0,1.0,65,0.00,-RA,-RA,0.00,WeatherDisplay:10.37,2013-08-20 00:56:00,
2013-08-19 20:01:00,77.0,64.8,30.00,SSE,154,0.0,1.0,66,0.00,-RA,-RA,0.00,WeatherDisplay:10.37,2013-08-20 01:01:00,
2013-08-19 20:11:00,76.4,64.6,30.00,SSE,154,0.0,2.0,67,0.00,-RA,-RA,0.00,WeatherDisplay:10.37,2013-08-20 01:11:00,
2013-08-19 20:21:00,75.9,64.1,30.00,SSE,154,1.0,2.0,67,0.00,-RA,-RA,0.00,WeatherDisplay:10.37,2013-08-20 01:21:00,
2013-08-19 20:31:00,75.6,63.8,30.00,SSE,154,1.0,3.0,67,0.00,-RA,-RA,0.00,WeatherDisplay:10.37,2013-08-20 01:31:00,
2013-08-19 20:41:00,75.0,63.7,30.00,SSE,154,0.0,1.0,68,0.00,-RA,-RA,0.00,WeatherDisplay:10.37,2013-08-20 01:41:00,
2013-08-19 20:51:00,74.3,63.9,30.00,SSE,154,1.0,2.0,70,0.00,-RA,-RA,0.00,WeatherDisplay:10.37,2013-08-20 01:51:00,
2013-08-19 21:01:00,74.1,64.1,30.00,SSE,154,1.0,3.0,71,0.00,-RA,-RA,0.00,WeatherDisplay:10.37,2013-08-20 02:01:00,
2013-08-19 21:11:00,73.9,64.7,30.01,SSE,154,1.0,2.0,73,0.00,-RA,-RA,0.00,WeatherDisplay:10.37,2013-08-20 02:11:00,
2013-08-19 21:16:00,73.8,65.0,30.01,SSE,154,1.0,2.0,74,0.00,-RA,-RA,0.00,WeatherDisplay:10.37,2013-08-20 02:16:00,
2013-08-19 21:21:00,73.7,64.9,30.01,SSE,154,1.0,2.0,74,0.00,-RA,-RA,0.00,WeatherDisplay:10.37,2013-08-20 02:21:00,
2013-08-19 21:31:00,73.2,64.8,30.01,SSE,154,1.0,2.0,75,0.00,-RA,-RA,0.00,WeatherDisplay:10.37,2013-08-20 02:31:00,
2013-08-19 21:41:00,73.0,64.6,30.02,SSE,154,1.0,3.0,75,0.00,-RA,-RA,0.00,WeatherDisplay:10.37,2013-08-20 02:41:00,
2013-08-19 21:46:00,72.9,64.9,30.02,SSE,154,1.0,4.0,76,0.00,-RA,-RA,0.00,WeatherDisplay:10.37,2013-08-20 02:46:00,
2013-08-19 21:51:00,72.8,64.8,30.02,SSE,154,1.0,3.0,76,0.00,-RA,-RA,0.00,WeatherDisplay:10.37,2013-08-20 02:51:00,
2013-08-19 22:01:00,72.3,64.6,30.02,SSE,154,1.0,3.0,77,0.00,-RA,-RA,0.00,WeatherDisplay:10.37,2013-08-20 03:01:00,
2013-08-19 22:11:00,72.0,64.4,30.02,SSE,154,1.0,3.0,77,0.00,-RA,-RA,0.00,WeatherDisplay:10.37,2013-08-20 03:11:00,
2013-08-19 22:16:00,71.9,64.6,30.02,SSE,154,1.0,3.0,78,0.00,-RA,-RA,0.00,WeatherDisplay:10.37,2013-08-20 03:16:00,
2013-08-19 22:21:00,71.6,64.4,30.02,SSE,154,0.0,3.0,78,0.00,-RA,-RA,0.00,WeatherDisplay:10.37,2013-08-20 03:21:00,
2013-08-19 22:31:00,71.4,64.5,30.02,SSE,154,1.0,3.0,79,0.00,-RA,-RA,0.00,WeatherDisplay:10.37,2013-08-20 03:31:00,
2013-08-19 22:41:00,71.3,64.5,30.02,SSE,154,1.0,4.0,79,0.00,-RA,-RA,0.00,WeatherDisplay:10.37,2013-08-20 03:41:00,
2013-08-19 22:46:00,71.2,64.3,30.02,SSE,153,1.0,3.0,79,0.00,-RA,-RA,0.00,WeatherDisplay:10.37,2013-08-20 03:46:00,
2013-08-19 22:51:00,71.0,64.1,30.02,SSE,153,1.0,2.0,79,0.00,-RA,-RA,0.00,WeatherDisplay:10.37,2013-08-20 03:51:00,
2013-08-19 23:01:00,71.0,64.1,30.02,SSE,152,1.0,3.0,79,0.00,-RA,-RA,0.00,WeatherDisplay:10.37,2013-08-20 04:01:00,
2013-08-19 23:06:00,71.0,64.2,30.02,SSE,153,1.0,4.0,79,0.00,-RA,-RA,0.00,WeatherDisplay:10.37,2013-08-20 04:06:00,
2013-08-19 23:11:00,71.1,64.2,30.02,SSE,157,1.0,3.0,79,0.00,-RA,-RA,0.00,WeatherDisplay:10.37,2013-08-20 04:11:00,
2013-08-19 23:16:00,71.1,64.2,30.02,SSE,157,1.0,5.0,79,0.00,-RA,-RA,0.00,WeatherDisplay:10.37,2013-08-20 04:16:00,
2013-08-19 23:21:00,71.1,63.9,30.02,SSE,157,2.0,5.0,78,0.00,-RA,-RA,0.00,WeatherDisplay:10.37,2013-08-20 04:21:00,
2013-08-19 23:26:00,71.2,63.9,30.02,SSE,162,2.0,5.0,78,0.00,-RA,-RA,0.00,WeatherDisplay:10.37,2013-08-20 04:26:00,
2013-08-19 23:31:00,71.2,63.9,30.02,SSE,163,2.0,5.0,78,0.00,-RA,-RA,0.00,WeatherDisplay:10.37,2013-08-20 04:31:00,
2013-08-19 23:41:00,70.7,63.9,30.02,SSE,163,1.0,4.0,79,0.00,-RA,-RA,0.00,WeatherDisplay:10.37,2013-08-20 04:41:00,
2013-08-19 23:51:00,70.4,63.9,30.02,South,176,1.0,4.0,80,0.00,-RA,-RA,0.00,WeatherDisplay:10.37,2013-08-20 04:51:00,
2013-08-19 23:56:00,70.3,63.8,30.02,South,176,1.0,4.0,80,0.00,-RA,-RA,0.00,WeatherDisplay:10.37,2013-08-20 04:56:00,